OPIS

Islamabad International Airport

Islamabad, Pakistan
TAF OPIS 220900Z 2212/2318 27010KT 4000 BR/HZ SCT040 BKN120 TEMPO 2212/2216 09015G25KT 3000 TSRA FEW030CB SCT030 BKN080 TEMPO 2216/2221 12010KT 4000 BR FEW010ST SCT040 BKN100
Issued Valid From Valid To
Jan-22 @ 09:00 UTC
(8 hours ago)
Jan-22 @ 12:00 UTC
(5 hours ago)
Jan-23 @ 18:00 UTC
(-1 days ago)
Jan-22 @ 12:00 to Jan-23 @ 18:00
TAF OPIS 220900Z 2212/2318 27010KT 4000 BR/HZ SCT040 BKN120
Wind Visibility Clouds Conditions
270° at 10 knots 4,007 meters
  • Scattered at 4,000' AGL
  • Broken at 12,000' AGL
  • Haze
  • Mist
Expired Click to View Jan-22 @ 12:00 to Jan-22 @ 16:00
TEMPO 2212/2216 09015G25KT 3000 TSRA FEW030CB SCT030 BKN080
Wind Visibility Clouds Conditions
90° at 15 knots
 Gusting to 25 knots
2,993 meters
  • Few at 3,000' AGL
  • Scattered at 3,000' AGL
  • Broken at 8,000' AGL
  • Thunderstorm
  • Rain
Temporary Jan-22 @ 16:00 to Jan-22 @ 21:00
TEMPO 2216/2221 12010KT 4000 BR FEW010ST SCT040 BKN100
Wind Visibility Clouds Conditions
120° at 10 knots 4,007 meters
  • Scattered at 4,000' AGL
  • Broken at 10,000' AGL
  • Mist
TAF OPIS 220900Z 2212/2318 27010KT 4000 BR/HZ SCT040 BKN120 TEMPO 2212/2216 09015G25KT 3000 TSRA FEW030CB SCT030 BKN080 TEMPO 2216/2221 12010KT 4000 BR FEW010ST SCT040 BKN100
Issued Jan-22 @ 09:00 UTC
(8 hours ago)
Valid From Jan-22 @ 12:00 UTC
(5 hours ago)
Valid To Jan-23 @ 18:00 UTC
(-1 days ago)
Jan-22 @ 12:00 - Jan-23 @ 18:00
Wind Visibility
270° at 10 knots 4,007 meters
Clouds
  • Scattered at 4,000' AGL
  • Broken at 12,000' AGL
Conditions
  • Haze
  • Mist
Jan-22 @ 12:00 - Jan-22 @ 16:00
Wind Visibility
90° at 15 knots
 Gusting to 25 knots
2,993 meters
Clouds
  • Few at 3,000' AGL
  • Scattered at 3,000' AGL
  • Broken at 8,000' AGL
Conditions
  • Thunderstorm
  • Rain
Temporary Jan-22 @ 16:00 - Jan-22 @ 21:00
Wind Visibility
120° at 10 knots 4,007 meters
Clouds
  • Scattered at 4,000' AGL
  • Broken at 10,000' AGL
Conditions
  • Mist